Time;durP1;ratioP1;P1;durP2;ratioP2;P2;SDS_P1;SDS_P2;PMS_P1;PMS_P2;Temp;Humidity;BMP_temperature;BMP_pressure;BME280_temperature;BME280_humidity;BME280_pressure;Samples;Min_cycle;Max_cycle;Signal;HPM_P1;HPM_P2
2022/12/20 00:00:00;;;;;;;0.10;0.10;;;2.60;99.90;;;;;;5056896;28;20219;-81
2022/12/20 00:02:25;;;;;;;0.10;0.10;;;2.60;99.90;;;;;;5053697;28;20185;-80
2022/12/20 00:04:51;;;;;;;0.10;0.10;;;2.50;99.90;;;;;;5068044;28;20208;-81
2022/12/20 00:07:17;;;;;;;0.10;0.10;;;2.40;99.90;;;;;;5070102;28;20182;-80
2022/12/20 00:09:43;;;;;;;0.10;0.10;;;2.50;99.90;;;;;;5053598;28;20311;-80
2022/12/20 00:12:09;;;;;;;0.10;0.10;;;2.40;99.90;;;;;;5071435;28;20254;-80
2022/12/20 00:14:34;;;;;;;0.10;0.10;;;2.40;99.90;;;;;;5053912;28;20944;-81
2022/12/20 00:17:00;;;;;;;0.00;0.00;;;2.50;99.90;;;;;;5072513;28;20660;-80
2022/12/20 00:19:25;;;;;;;0.10;0.10;;;2.40;99.90;;;;;;5053452;28;20243;-81
2022/12/20 00:21:51;;;;;;;0.10;0.10;;;2.40;99.90;;;;;;5056163;28;20214;-81
2022/12/20 00:24:16;;;;;;;0.10;0.10;;;2.50;99.90;;;;;;5070991;28;20574;-80
2022/12/20 00:26:42;;;;;;;0.10;0.10;;;2.50;99.90;;;;;;5068910;28;20214;-80
2022/12/20 00:29:08;;;;;;;0.10;0.10;;;2.60;99.90;;;;;;5071301;28;20196;-80
2022/12/20 00:31:34;;;;;;;0.30;0.30;;;2.60;99.90;;;;;;5069598;28;20176;-81
2022/12/20 00:34:00;;;;;;;0.10;0.10;;;2.60;99.90;;;;;;5054376;28;20213;-81
2022/12/20 00:36:28;;;;;;;0.10;0.10;;;2.60;99.90;;;;;;5053860;28;20208;-80
2022/12/20 00:38:55;;;;;;;0.10;0.10;;;2.40;99.90;;;;;;5053337;28;20243;-80
2022/12/20 00:41:26;;;;;;;0.10;0.10;;;2.50;99.90;;;;;;5054443;28;20654;-81
2022/12/20 00:43:52;;;;;;;0.10;0.10;;;2.70;99.90;;;;;;5054684;28;20181;-81
2022/12/20 00:46:19;;;;;;;0.10;0.10;;;2.60;99.90;;;;;;5053613;28;20637;-80
2022/12/20 00:48:45;;;;;;;0.10;0.10;;;2.60;99.90;;;;;;5055323;28;20846;-80
2022/12/20 00:51:17;;;;;;;0.10;0.10;;;2.60;99.90;;;;;;5054836;28;20242;-80
2022/12/20 00:53:43;;;;;;;0.10;0.10;;;2.80;99.90;;;;;;5056629;28;20659;-81
2022/12/20 00:56:09;;;;;;;0.03;0.03;;;2.90;99.90;;;;;;5053176;28;20764;-81
2022/12/20 00:58:38;;;;;;;0.10;0.10;;;2.80;99.90;;;;;;5070144;28;20216;-80
2022/12/20 01:01:05;;;;;;;0.00;0.00;;;2.80;99.90;;;;;;5067940;28;20191;-80
2022/12/20 01:03:31;;;;;;;0.10;0.10;;;3.00;99.90;;;;;;5054852;28;20220;-80
2022/12/20 01:06:01;;;;;;;0.10;0.10;;;3.10;99.90;;;;;;5051181;28;20212;-82
2022/12/20 01:08:29;;;;;;;0.10;0.10;;;3.20;99.90;;;;;;5053088;28;20184;-81
2022/12/20 01:11:17;;;;;;;0.10;0.10;;;3.20;99.90;;;;;;5068951;28;20209;-80
2022/12/20 01:13:45;;;;;;;0.10;0.10;;;3.30;99.90;;;;;;5067156;28;20182;-81
2022/12/20 01:16:16;;;;;;;0.10;0.10;;;3.30;99.90;;;;;;5053165;28;20185;-80
2022/12/20 01:18:43;;;;;;;0.10;0.10;;;3.40;99.90;;;;;;5054061;28;20588;-81
2022/12/20 01:21:13;;;;;;;0.10;0.10;;;3.40;99.90;;;;;;5051862;28;20237;-81
2022/12/20 01:23:39;;;;;;;0.10;0.10;;;3.40;99.90;;;;;;5066480;28;20235;-81
2022/12/20 01:26:09;;;;;;;0.10;0.10;;;3.50;99.90;;;;;;5067241;28;20206;-81
2022/12/20 01:28:36;;;;;;;0.10;0.10;;;3.60;99.90;;;;;;5053040;28;20239;-80
2022/12/20 01:31:06;;;;;;;0.10;0.10;;;3.60;99.90;;;;;;5066982;28;20209;-82
2022/12/20 01:33:32;;;;;;;0.10;0.10;;;3.50;99.90;;;;;;5051892;28;20263;-82
2022/12/20 01:36:00;;;;;;;0.00;0.00;;;3.50;99.90;;;;;;5068368;28;20188;-82
2022/12/20 01:38:26;;;;;;;0.00;0.00;;;3.50;99.90;;;;;;5068635;28;20594;-80
2022/12/20 01:40:52;;;;;;;0.00;0.00;;;3.40;99.90;;;;;;5067879;28;20192;-82
2022/12/20 01:43:19;;;;;;;0.10;0.10;;;3.30;99.90;;;;;;5067724;28;20641;-81
2022/12/20 01:45:45;;;;;;;0.00;0.00;;;3.10;99.90;;;;;;5067555;28;20266;-81
2022/12/20 01:48:13;;;;;;;0.10;0.10;;;3.00;99.90;;;;;;5070007;28;20222;-82
2022/12/20 01:50:38;;;;;;;0.00;0.00;;;3.00;99.90;;;;;;5068662;28;20181;-81
2022/12/20 01:53:04;;;;;;;0.03;0.03;;;3.00;99.90;;;;;;5066989;28;20177;-82
2022/12/20 01:55:31;;;;;;;0.10;0.10;;;2.80;99.90;;;;;;5066281;28;20192;-81
2022/12/20 01:58:07;;;;;;;0.10;0.10;;;2.60;99.90;;;;;;5053147;28;20229;-81
2022/12/20 02:00:33;;;;;;;0.07;0.07;;;2.50;99.90;;;;;;5051683;28;20300;-81
2022/12/20 02:03:02;;;;;;;0.10;0.10;;;2.40;99.90;;;;;;5054245;28;20264;-82
2022/12/20 02:05:33;;;;;;;0.10;0.10;;;2.40;99.90;;;;;;5053357;28;20693;-82
2022/12/20 02:07:58;;;;;;;0.10;0.10;;;2.40;99.90;;;;;;5050142;28;20260;-82
2022/12/20 02:10:34;;;;;;;0.10;0.10;;;2.60;99.90;;;;;;5050925;28;20290;-81
2022/12/20 02:13:09;;;;;;;0.10;0.10;;;2.80;99.90;;;;;;5066279;28;20183;-82
2022/12/20 02:15:54;;;;;;;0.00;0.00;;;2.90;99.90;;;;;;5053302;28;20178;-80
2022/12/20 02:18:43;;;;;;;0.10;0.10;;;3.00;99.90;;;;;;5052110;28;20262;-81
2022/12/20 02:21:11;;;;;;;0.10;0.10;;;3.00;99.90;;;;;;5066264;28;20191;-81
2022/12/20 02:23:58;;;;;;;0.10;0.10;;;3.10;99.90;;;;;;5051749;28;20266;-81
2022/12/20 02:27:18;;;;;;;0.10;0.10;;;3.10;99.90;;;;;;5067084;28;20208;-82
2022/12/20 02:29:59;;;;;;;0.00;0.00;;;3.20;99.90;;;;;;5026478;28;20225;-81
2022/12/20 02:32:29;;;;;;;0.10;0.10;;;3.30;99.90;;;;;;5068684;28;20173;-81
2022/12/20 02:34:55;;;;;;;0.10;0.10;;;3.30;99.90;;;;;;5056238;28;20181;-81
2022/12/20 02:37:21;;;;;;;0.10;0.10;;;3.20;99.90;;;;;;5053763;28;20188;-81
2022/12/20 02:39:48;;;;;;;0.00;0.00;;;3.20;99.90;;;;;;5067944;28;20216;-82
2022/12/20 02:42:18;;;;;;;0.10;0.10;;;3.20;99.90;;;;;;5052088;28;20710;-81
2022/12/20 02:47:52;;;;;;;0.10;0.10;;;3.10;99.90;;;;;;5057044;28;21244;-82
2022/12/20 02:50:27;;;;;;;0.00;0.00;;;3.10;99.90;;;;;;5058274;28;20209;-81
2022/12/20 02:52:53;;;;;;;0.10;0.10;;;3.20;99.90;;;;;;5058945;28;20207;-81
2022/12/20 02:55:23;;;;;;;0.07;0.07;;;3.10;99.90;;;;;;5075443;28;20718;-80
2022/12/20 02:57:58;;;;;;;0.10;0.10;;;3.00;99.90;;;;;;5055439;28;20620;-81
2022/12/20 03:00:24;;;;;;;0.10;0.10;;;3.00;99.90;;;;;;5073318;28;20290;-81
2022/12/20 03:05:42;;;;;;;0.10;0.10;;;3.20;99.90;;;;;;5054527;28;20219;-81
2022/12/20 03:08:08;;;;;;;0.10;0.10;;;3.20;99.90;;;;;;5059522;28;20187;-80
2022/12/20 03:10:34;;;;;;;0.10;0.10;;;3.00;99.90;;;;;;5053654;28;20205;-81
2022/12/20 03:12:59;;;;;;;0.00;0.00;;;3.00;99.90;;;;;;5058090;28;20746;-81
2022/12/20 03:15:25;;;;;;;0.10;0.10;;;3.00;99.90;;;;;;5074534;28;20190;-81
2022/12/20 03:17:50;;;;;;;0.00;0.00;;;2.90;99.90;;;;;;5069748;28;20755;-81
2022/12/20 03:20:16;;;;;;;0.07;0.07;;;2.90;99.90;;;;;;5073102;28;20638;-81
2022/12/20 03:22:42;;;;;;;0.10;0.10;;;3.10;99.90;;;;;;5072585;28;20713;-81
2022/12/20 03:25:08;;;;;;;0.10;0.10;;;3.20;99.90;;;;;;5070331;28;20743;-81
2022/12/20 03:27:33;;;;;;;0.10;0.10;;;3.30;99.90;;;;;;5071877;28;20600;-81
2022/12/20 03:29:59;;;;;;;0.03;0.03;;;3.20;99.90;;;;;;5053436;28;20303;-82
2022/12/20 03:32:25;;;;;;;0.00;0.00;;;2.90;99.90;;;;;;5070044;28;20649;-81
2022/12/20 03:34:50;;;;;;;0.10;0.10;;;2.70;99.90;;;;;;5051617;28;20190;-80
2022/12/20 03:37:16;;;;;;;0.00;0.00;;;2.60;99.90;;;;;;5054209;28;21177;-81
2022/12/20 03:39:41;;;;;;;0.10;0.10;;;2.40;99.90;;;;;;5070545;28;20218;-81
2022/12/20 03:42:07;;;;;;;0.10;0.10;;;2.40;99.90;;;;;;5053739;28;20561;-80
2022/12/20 03:44:33;;;;;;;0.10;0.10;;;2.40;99.90;;;;;;5055339;28;20227;-81
2022/12/20 03:46:58;;;;;;;0.40;0.40;;;2.40;99.90;;;;;;5068323;28;20186;-80
2022/12/20 03:49:24;;;;;;;0.10;0.10;;;2.40;99.90;;;;;;5055170;28;20230;-81
2022/12/20 03:51:49;;;;;;;1.10;1.10;;;2.50;99.90;;;;;;5055996;28;20715;-81
2022/12/20 03:54:15;;;;;;;0.00;0.00;;;2.70;99.90;;;;;;5057123;28;20270;-81
2022/12/20 03:56:40;;;;;;;0.00;0.00;;;2.90;99.90;;;;;;5055592;28;20780;-81
2022/12/20 03:59:06;;;;;;;0.10;0.10;;;3.00;99.90;;;;;;5070600;28;21154;-81
2022/12/20 04:01:35;;;;;;;0.10;0.10;;;3.10;99.90;;;;;;5070450;28;20660;-81
2022/12/20 04:04:01;;;;;;;0.10;0.10;;;3.00;99.90;;;;;;5071475;28;20314;-82
2022/12/20 04:06:26;;;;;;;0.00;0.00;;;2.80;99.90;;;;;;5070539;28;20290;-82
2022/12/20 04:08:52;;;;;;;14.27;6.30;;;2.80;99.90;;;;;;5071022;28;20203;-81
2022/12/20 04:11:18;;;;;;;0.10;0.10;;;2.60;99.90;;;;;;5069463;28;20177;-81
2022/12/20 04:13:45;;;;;;;0.10;0.10;;;2.60;99.90;;;;;;5070760;28;20266;-81
2022/12/20 04:16:14;;;;;;;0.00;0.00;;;2.60;99.90;;;;;;5071218;28;20229;-81
2022/12/20 04:18:40;;;;;;;0.00;0.00;;;2.60;99.90;;;;;;5068635;28;20201;-81
2022/12/20 04:21:06;;;;;;;0.00;0.00;;;2.80;99.90;;;;;;5055200;28;20667;-81
2022/12/20 04:23:34;;;;;;;0.10;0.10;;;2.90;99.90;;;;;;5051546;28;20187;-81
2022/12/20 04:26:00;;;;;;;0.10;0.10;;;3.00;99.90;;;;;;5069340;28;20308;-82
2022/12/20 04:28:27;;;;;;;0.00;0.00;;;2.90;99.90;;;;;;5056369;28;20183;-81
2022/12/20 04:30:52;;;;;;;0.00;0.00;;;2.90;99.90;;;;;;5067953;28;20179;-81
2022/12/20 04:33:18;;;;;;;0.10;0.10;;;3.00;99.90;;;;;;5071162;28;20218;-81
2022/12/20 04:35:43;;;;;;;0.00;0.00;;;2.90;99.90;;;;;;5069397;28;20191;-81
2022/12/20 04:38:09;;;;;;;0.03;0.03;;;3.00;99.90;;;;;;5069833;28;20242;-81
2022/12/20 04:40:34;;;;;;;0.10;0.10;;;3.00;99.90;;;;;;5053902;28;20289;-82
2022/12/20 04:43:00;;;;;;;0.00;0.00;;;3.20;99.90;;;;;;5053402;28;20192;-80
2022/12/20 04:45:25;;;;;;;0.00;0.00;;;3.30;99.90;;;;;;5055005;28;20208;-82
2022/12/20 04:47:51;;;;;;;0.00;0.00;;;3.40;99.90;;;;;;5053571;28;20195;-80
2022/12/20 04:50:17;;;;;;;0.10;0.10;;;3.50;99.90;;;;;;5054440;28;20200;-81
2022/12/20 04:55:28;;;;;;;0.10;0.10;;;3.50;99.90;;;;;;5055794;28;20249;-81
2022/12/20 04:57:54;;;;;;;0.10;0.10;;;3.30;99.90;;;;;;5070587;28;20706;-81
2022/12/20 05:00:21;;;;;;;0.10;0.10;;;3.40;99.90;;;;;;5073531;28;20208;-81
2022/12/20 05:02:46;;;;;;;0.10;0.10;;;3.30;99.90;;;;;;5070396;28;20210;-81
2022/12/20 05:05:12;;;;;;;0.10;0.10;;;3.40;99.90;;;;;;5057901;28;20204;-82
2022/12/20 05:07:38;;;;;;;0.10;0.10;;;3.50;99.90;;;;;;5072975;28;20214;-81
2022/12/20 05:10:04;;;;;;;0.10;0.10;;;3.40;99.90;;;;;;5058276;28;20201;-81
2022/12/20 05:12:30;;;;;;;0.10;0.10;;;3.40;99.90;;;;;;5070994;28;20184;-81
2022/12/20 05:14:55;;;;;;;0.10;0.10;;;3.30;99.90;;;;;;5073252;28;20780;-81
2022/12/20 05:17:21;;;;;;;0.10;0.10;;;3.40;99.90;;;;;;5056343;28;20669;-81
2022/12/20 05:19:46;;;;;;;0.10;0.10;;;3.40;99.90;;;;;;5071945;28;20238;-81
2022/12/20 05:27:40;;;;;;;0.10;0.10;;;3.50;99.90;;;;;;5054819;28;20299;-82
2022/12/20 05:30:06;;;;;;;0.10;0.10;;;3.60;99.90;;;;;;5068685;28;20757;-81
2022/12/20 05:32:32;;;;;;;0.10;0.10;;;3.40;99.90;;;;;;5052754;28;20193;-82
2022/12/20 05:34:57;;;;;;;0.10;0.10;;;3.20;99.90;;;;;;5052741;28;20602;-81
2022/12/20 05:37:23;;;;;;;0.10;0.10;;;3.00;99.90;;;;;;5069018;28;20275;-81
2022/12/20 05:39:49;;;;;;;0.10;0.10;;;3.00;99.90;;;;;;5068595;28;20678;-82
2022/12/20 05:42:15;;;;;;;0.10;0.10;;;2.90;99.90;;;;;;5053022;28;20234;-82
2022/12/20 05:44:40;;;;;;;0.07;0.07;;;2.80;99.90;;;;;;5070185;28;20193;-81
2022/12/20 05:47:06;;;;;;;0.10;0.10;;;2.80;99.90;;;;;;5070475;28;20196;-82
2022/12/20 05:49:31;;;;;;;0.10;0.10;;;2.90;99.90;;;;;;5069316;28;20267;-83
2022/12/20 05:51:57;;;;;;;0.10;0.10;;;2.90;99.90;;;;;;5070459;28;20183;-81
2022/12/20 05:54:24;;;;;;;0.00;0.00;;;3.00;99.90;;;;;;5068931;28;20580;-81
2022/12/20 05:56:49;;;;;;;0.10;0.10;;;3.00;99.90;;;;;;5065376;28;20257;-81
2022/12/20 05:59:16;;;;;;;0.10;0.10;;;3.00;99.90;;;;;;5054298;28;20208;-81
2022/12/20 06:01:42;;;;;;;0.10;0.10;;;3.10;99.90;;;;;;5056448;28;20243;-81
2022/12/20 06:04:07;;;;;;;0.00;0.00;;;3.00;99.90;;;;;;5058728;28;20188;-82
2022/12/20 06:06:33;;;;;;;0.00;0.00;;;3.10;99.90;;;;;;5073940;28;20273;-82
2022/12/20 06:08:59;;;;;;;0.10;0.10;;;3.20;99.90;;;;;;5071690;28;20211;-82
2022/12/20 06:11:24;;;;;;;0.10;0.10;;;3.30;99.90;;;;;;5071168;28;20187;-80
2022/12/20 06:13:50;;;;;;;0.10;0.10;;;3.40;99.90;;;;;;5070804;28;20180;-80
2022/12/20 06:16:18;;;;;;;0.10;0.10;;;3.30;99.90;;;;;;5054603;28;20196;-81
2022/12/20 06:18:43;;;;;;;0.00;0.00;;;3.20;99.90;;;;;;5072439;28;20305;-81
2022/12/20 06:21:09;;;;;;;0.10;0.10;;;3.10;99.90;;;;;;5071084;28;20252;-81
2022/12/20 06:23:35;;;;;;;0.10;0.10;;;3.10;99.90;;;;;;5070899;28;20178;-81
2022/12/20 06:26:00;;;;;;;0.10;0.10;;;3.00;99.90;;;;;;5068701;28;20207;-82
2022/12/20 06:28:26;;;;;;;0.10;0.10;;;3.00;99.90;;;;;;5054681;28;20304;-82
2022/12/20 06:30:56;;;;;;;0.00;0.00;;;3.10;99.90;;;;;;5054770;28;20196;-80
2022/12/20 06:33:21;;;;;;;0.10;0.10;;;3.10;99.90;;;;;;5056010;28;20184;-80
2022/12/20 06:35:49;;;;;;;0.10;0.10;;;3.10;99.90;;;;;;5069631;28;20624;-83
2022/12/20 06:38:14;;;;;;;0.00;0.00;;;3.20;99.90;;;;;;5053863;28;20192;-81
2022/12/20 06:40:40;;;;;;;2.50;2.40;;;3.30;99.90;;;;;;5055624;28;20185;-81
2022/12/20 06:43:05;;;;;;;0.10;0.10;;;3.30;99.90;;;;;;5055022;28;20276;-81
2022/12/20 06:45:31;;;;;;;0.10;0.10;;;3.40;99.90;;;;;;5065596;28;20240;-81
2022/12/20 06:47:57;;;;;;;0.10;0.10;;;3.50;99.90;;;;;;5052448;28;20711;-82
2022/12/20 06:50:23;;;;;;;0.10;0.10;;;3.50;99.90;;;;;;5069657;28;20314;-83
2022/12/20 06:52:48;;;;;;;0.00;0.00;;;3.60;99.90;;;;;;5071034;28;20710;-84
2022/12/20 06:55:14;;;;;;;0.10;0.10;;;3.70;99.90;;;;;;5071799;28;20235;-85
2022/12/20 06:57:39;;;;;;;0.10;0.10;;;3.80;99.90;;;;;;5071756;28;20202;-84
2022/12/20 07:00:07;;;;;;;0.10;0.10;;;3.90;99.90;;;;;;5057563;28;21833;-83
2022/12/20 07:02:33;;;;;;;0.00;0.00;;;3.80;99.90;;;;;;5063808;28;20186;-85
2022/12/20 07:04:58;;;;;;;0.10;0.10;;;3.80;99.90;;;;;;5073884;28;20227;-85
2022/12/20 07:07:26;;;;;;;0.10;0.10;;;3.70;99.90;;;;;;5072678;28;20215;-85
2022/12/20 07:09:52;;;;;;;0.10;0.10;;;3.60;99.90;;;;;;5067059;28;20323;-82
2022/12/20 07:12:17;;;;;;;0.10;0.10;;;3.50;99.90;;;;;;5055067;28;20333;-82
2022/12/20 07:14:43;;;;;;;0.07;0.07;;;3.70;99.90;;;;;;5060403;28;20182;-82
2022/12/20 07:17:09;;;;;;;0.10;0.10;;;3.70;99.90;;;;;;5080027;28;20213;-81
2022/12/20 07:19:37;;;;;;;0.10;0.10;;;3.70;99.90;;;;;;5074341;28;20267;-82
2022/12/20 07:22:04;;;;;;;0.10;0.10;;;3.60;99.90;;;;;;5056161;28;20201;-82
2022/12/20 07:24:30;;;;;;;0.10;0.10;;;3.50;99.90;;;;;;5073568;28;20215;-83
2022/12/20 07:26:56;;;;;;;0.10;0.10;;;3.40;99.90;;;;;;5057179;28;20859;-82
2022/12/20 07:29:21;;;;;;;0.10;0.10;;;3.50;99.90;;;;;;5076719;28;20272;-81
2022/12/20 07:31:47;;;;;;;0.10;0.10;;;3.50;99.90;;;;;;5053621;28;20643;-81
2022/12/20 07:34:13;;;;;;;0.10;0.10;;;3.70;99.90;;;;;;5067054;28;21963;-81
2022/12/20 07:36:38;;;;;;;0.00;0.00;;;3.80;99.90;;;;;;5066737;28;20224;-81
2022/12/20 07:39:04;;;;;;;0.10;0.10;;;4.00;99.90;;;;;;5070074;28;20220;-82
2022/12/20 07:41:30;;;;;;;0.10;0.10;;;4.10;99.90;;;;;;5069844;28;20193;-81
2022/12/20 07:43:58;;;;;;;0.10;0.10;;;4.10;99.90;;;;;;5056541;28;20193;-81
2022/12/20 07:46:23;;;;;;;0.10;0.10;;;4.10;99.90;;;;;;5072248;28;20205;-81
2022/12/20 07:48:49;;;;;;;0.10;0.10;;;4.20;99.90;;;;;;5050197;28;20208;-82
2022/12/20 07:51:24;;;;;;;0.10;0.10;;;4.20;99.90;;;;;;5070666;28;20193;-82
2022/12/20 07:54:13;;;;;;;0.10;0.10;;;4.30;99.90;;;;;;5058420;28;20553;-81
2022/12/20 07:56:43;;;;;;;0.10;0.10;;;4.30;99.90;;;;;;5055571;28;20209;-82
2022/12/20 07:59:11;;;;;;;0.10;0.10;;;4.10;99.90;;;;;;5068832;28;20925;-80
2022/12/20 08:01:37;;;;;;;0.10;0.10;;;4.20;99.90;;;;;;5053183;28;20198;-81
2022/12/20 08:04:07;;;;;;;0.10;0.10;;;4.30;99.90;;;;;;5068684;28;20197;-81
2022/12/20 08:06:35;;;;;;;0.10;0.10;;;4.30;99.90;;;;;;5072245;28;20230;-81
2022/12/20 08:09:04;;;;;;;0.10;0.10;;;4.40;99.90;;;;;;5054632;28;20292;-81
2022/12/20 08:11:33;;;;;;;0.10;0.10;;;4.50;99.90;;;;;;5070905;28;20539;-82
2022/12/20 08:13:59;;;;;;;0.10;0.10;;;4.50;99.90;;;;;;5056322;28;20185;-82
2022/12/20 08:16:25;;;;;;;0.10;0.10;;;4.60;99.90;;;;;;5050741;28;20185;-81
2022/12/20 08:18:51;;;;;;;0.00;0.00;;;4.60;99.90;;;;;;5055002;28;20208;-81
2022/12/20 08:21:16;;;;;;;0.10;0.10;;;4.70;99.90;;;;;;5054444;28;20189;-82
2022/12/20 08:23:42;;;;;;;0.10;0.10;;;4.50;99.90;;;;;;5072100;28;20285;-82
2022/12/20 08:26:07;;;;;;;0.10;0.10;;;4.50;99.90;;;;;;5055360;28;20251;-81
2022/12/20 08:28:33;;;;;;;0.00;0.00;;;4.50;99.90;;;;;;5073041;28;20647;-81
2022/12/20 08:31:04;;;;;;;0.00;0.00;;;4.30;99.90;;;;;;5053905;28;20196;-81
2022/12/20 08:33:31;;;;;;;0.00;0.00;;;4.10;99.90;;;;;;5051198;28;20238;-83
2022/12/20 08:36:03;;;;;;;0.10;0.10;;;4.00;99.90;;;;;;5052614;28;20193;-83
2022/12/20 08:38:29;;;;;;;0.10;0.10;;;3.90;99.90;;;;;;5052993;28;20185;-83
2022/12/20 08:40:56;;;;;;;0.10;0.10;;;4.10;99.90;;;;;;5054944;28;20276;-81
2022/12/20 08:43:21;;;;;;;0.10;0.10;;;4.10;99.90;;;;;;5052412;28;20640;-83
2022/12/20 08:45:54;;;;;;;0.10;0.10;;;3.90;99.90;;;;;;5069893;28;20262;-82
2022/12/20 08:48:20;;;;;;;0.10;0.10;;;3.80;99.90;;;;;;5052132;28;20656;-83
2022/12/20 08:50:45;;;;;;;0.10;0.10;;;3.80;99.90;;;;;;5051228;28;20219;-85
2022/12/20 08:53:11;;;;;;;0.10;0.10;;;3.80;99.90;;;;;;5065035;28;20631;-82
2022/12/20 08:55:37;;;;;;;0.03;0.03;;;3.80;99.90;;;;;;5068292;28;20187;-83
2022/12/20 08:58:02;;;;;;;0.10;0.10;;;3.90;99.90;;;;;;5047698;28;20217;-83
2022/12/20 09:00:28;;;;;;;0.10;0.10;;;3.90;99.90;;;;;;5060502;28;20309;-83
2022/12/20 09:02:54;;;;;;;0.10;0.10;;;3.90;99.90;;;;;;5041578;28;20205;-84
2022/12/20 09:05:19;;;;;;;0.10;0.10;;;3.90;99.90;;;;;;5048143;28;20213;-82
2022/12/20 09:07:45;;;;;;;0.00;0.00;;;3.80;99.90;;;;;;5051200;28;20196;-83
2022/12/20 09:10:11;;;;;;;0.00;0.00;;;3.80;99.90;;;;;;5066940;28;20215;-82
2022/12/20 09:12:38;;;;;;;0.10;0.10;;;3.80;99.90;;;;;;5053246;28;20188;-82
2022/12/20 09:15:04;;;;;;;0.10;0.10;;;3.90;99.90;;;;;;5068385;28;20237;-83
2022/12/20 09:17:30;;;;;;;0.10;0.10;;;3.90;99.90;;;;;;5053553;28;20224;-82
2022/12/20 09:19:55;;;;;;;0.10;0.10;;;4.00;99.90;;;;;;5065945;28;20248;-83
2022/12/20 09:22:21;;;;;;;0.10;0.10;;;4.10;99.90;;;;;;5051598;28;20654;-82
2022/12/20 09:24:47;;;;;;;0.10;0.10;;;4.20;99.90;;;;;;5068161;28;20192;-83
2022/12/20 09:27:12;;;;;;;0.10;0.10;;;4.10;99.90;;;;;;5066663;28;20568;-83
2022/12/20 09:29:38;;;;;;;0.10;0.10;;;4.10;99.90;;;;;;5066641;28;20636;-82
2022/12/20 09:32:03;;;;;;;0.20;0.20;;;4.20;99.90;;;;;;5051726;28;20178;-82
2022/12/20 09:34:29;;;;;;;0.10;0.10;;;4.20;99.90;;;;;;5067319;28;20658;-82
2022/12/20 09:36:54;;;;;;;0.10;0.10;;;4.40;99.90;;;;;;5070747;28;20188;-83
2022/12/20 09:39:22;;;;;;;0.10;0.10;;;4.40;99.90;;;;;;5070065;28;20689;-82
2022/12/20 09:41:48;;;;;;;0.10;0.10;;;4.50;99.90;;;;;;5072131;28;20189;-82
2022/12/20 09:44:27;;;;;;;0.10;0.10;;;4.50;99.90;;;;;;5061053;28;20193;-83
2022/12/20 09:46:58;;;;;;;0.10;0.10;;;4.60;99.90;;;;;;5069678;28;20220;-83
2022/12/20 09:49:28;;;;;;;0.03;0.03;;;4.50;99.90;;;;;;5055044;28;20205;-82
2022/12/20 09:52:15;;;;;;;0.10;0.10;;;4.50;99.90;;;;;;5056464;28;20181;-81
2022/12/20 09:55:09;;;;;;;0.10;0.10;;;4.40;99.90;;;;;;5072344;28;21090;-82
2022/12/20 09:57:46;;;;;;;0.10;0.10;;;4.40;99.90;;;;;;5056352;28;20243;-82
2022/12/20 10:00:14;;;;;;;0.10;0.10;;;4.50;99.90;;;;;;5041181;28;20208;-83
2022/12/20 10:02:40;;;;;;;0.10;0.10;;;4.40;99.90;;;;;;5056405;28;20181;-82
2022/12/20 10:05:14;;;;;;;0.07;0.07;;;4.40;99.90;;;;;;5056632;28;20219;-83
2022/12/20 10:08:02;;;;;;;0.10;0.10;;;4.50;99.90;;;;;;5056290;28;20236;-83
2022/12/20 10:10:49;;;;;;;0.10;0.10;;;4.50;99.90;;;;;;5057308;28;20201;-82
2022/12/20 10:13:36;;;;;;;0.10;0.10;;;4.50;99.90;;;;;;5057631;28;20191;-83
2022/12/20 10:16:36;;;;;;;0.00;0.00;;;4.50;99.90;;;;;;5072611;28;20189;-83
2022/12/20 10:19:15;;;;;;;0.00;0.00;;;4.50;99.90;;;;;;5072985;28;20263;-83
2022/12/20 10:21:52;;;;;;;0.10;0.10;;;4.60;99.90;;;;;;5090150;28;20188;-83
2022/12/20 10:24:29;;;;;;;0.00;0.00;;;4.50;99.90;;;;;;5056865;28;20181;-83
2022/12/20 10:26:57;;;;;;;0.03;0.03;;;4.50;99.90;;;;;;5055311;28;20341;-83
2022/12/20 10:29:22;;;;;;;0.10;0.10;;;4.60;99.90;;;;;;5058731;28;20738;-82
2022/12/20 10:31:58;;;;;;;0.10;0.10;;;4.70;99.90;;;;;;5071427;28;20186;-82
2022/12/20 10:34:24;;;;;;;0.10;0.10;;;4.80;99.90;;;;;;5057260;28;20236;-82
2022/12/20 10:37:10;;;;;;;0.00;0.00;;;5.00;99.90;;;;;;5072887;28;20197;-83
2022/12/20 10:39:43;;;;;;;0.10;0.10;;;5.20;99.90;;;;;;5059141;28;20210;-83
2022/12/20 10:42:38;;;;;;;0.10;0.10;;;5.40;99.90;;;;;;5057032;28;20212;-83
2022/12/20 10:45:30;;;;;;;0.07;0.07;;;5.60;99.90;;;;;;5054931;28;20197;-83
2022/12/20 10:47:59;;;;;;;0.10;0.10;;;5.70;99.90;;;;;;5055378;28;20724;-83
2022/12/20 10:50:25;;;;;;;0.10;0.10;;;5.80;99.90;;;;;;5057434;28;20201;-82
2022/12/20 10:53:09;;;;;;;0.10;0.10;;;5.80;99.90;;;;;;5073542;28;20215;-82
2022/12/20 10:55:39;;;;;;;0.07;0.07;;;5.70;99.90;;;;;;5071956;28;20678;-83
2022/12/20 10:58:34;;;;;;;0.10;0.10;;;5.60;99.90;;;;;;5073318;28;20192;-82
2022/12/20 11:01:09;;;;;;;0.10;0.10;;;5.60;99.90;;;;;;5055814;28;20178;-82
2022/12/20 11:03:56;;;;;;;0.00;0.00;;;5.80;99.90;;;;;;5057780;28;20182;-82
2022/12/20 11:06:36;;;;;;;0.00;0.00;;;5.90;99.90;;;;;;5054063;28;20202;-82
2022/12/20 11:09:23;;;;;;;0.00;0.00;;;5.90;99.90;;;;;;5071602;28;20524;-82
2022/12/20 11:11:59;;;;;;;0.10;0.10;;;5.80;99.90;;;;;;5056994;28;20169;-82
2022/12/20 11:14:25;;;;;;;0.10;0.10;;;5.70;99.90;;;;;;5067694;28;20185;-82
2022/12/20 11:16:54;;;;;;;0.10;0.10;;;5.80;99.90;;;;;;5070190;28;20186;-83
2022/12/20 11:19:22;;;;;;;0.10;0.10;;;5.90;99.90;;;;;;5070590;28;20679;-82
2022/12/20 11:22:03;;;;;;;0.10;0.10;;;6.10;99.90;;;;;;5073582;28;20248;-83
2022/12/20 11:24:56;;;;;;;0.10;0.10;;;6.10;99.90;;;;;;5071941;28;20198;-81
2022/12/20 11:27:31;;;;;;;0.10;0.10;;;6.20;99.90;;;;;;5055887;28;20193;-82
2022/12/20 11:30:05;;;;;;;0.10;0.10;;;6.30;99.90;;;;;;5058193;28;20197;-82
2022/12/20 11:33:01;;;;;;;0.10;0.10;;;6.40;99.90;;;;;;5069310;28;20251;-82
2022/12/20 11:35:34;;;;;;;0.10;0.10;;;6.20;99.90;;;;;;5053010;28;20183;-81
2022/12/20 11:38:08;;;;;;;0.10;0.10;;;5.90;99.90;;;;;;5054459;28;20195;-82
2022/12/20 11:40:43;;;;;;;0.10;0.10;;;5.90;99.90;;;;;;5069319;28;20222;-82
2022/12/20 11:43:29;;;;;;;0.10;0.10;;;5.90;99.90;;;;;;5069873;28;20195;-82
2022/12/20 11:46:13;;;;;;;0.10;0.10;;;5.80;99.90;;;;;;5071042;28;20643;-81
2022/12/20 11:48:52;;;;;;;0.00;0.00;;;5.80;99.90;;;;;;5056575;28;20213;-82
2022/12/20 11:51:43;;;;;;;0.10;0.10;;;5.80;99.90;;;;;;5051845;28;20182;-84
2022/12/20 11:54:26;;;;;;;0.10;0.10;;;6.00;99.90;;;;;;5056832;28;20198;-81
2022/12/20 11:56:58;;;;;;;0.07;0.07;;;6.10;99.90;;;;;;5070533;28;20204;-82
2022/12/20 11:59:45;;;;;;;0.10;0.10;;;6.00;99.90;;;;;;5055293;28;20210;-82
2022/12/20 12:02:15;;;;;;;0.10;0.10;;;6.20;99.90;;;;;;5068675;28;20553;-82
2022/12/20 12:04:57;;;;;;;0.10;0.10;;;6.30;99.90;;;;;;5055488;28;21095;-82
2022/12/20 12:07:29;;;;;;;0.10;0.10;;;6.30;99.90;;;;;;5054698;28;20181;-84
2022/12/20 12:10:08;;;;;;;0.10;0.10;;;6.30;99.90;;;;;;5057355;28;20206;-82
2022/12/20 12:12:42;;;;;;;0.10;0.10;;;6.20;99.90;;;;;;5054351;28;20199;-81
2022/12/20 12:15:14;;;;;;;0.00;0.00;;;6.20;99.90;;;;;;5074561;28;20243;-83
2022/12/20 12:18:06;;;;;;;0.00;0.00;;;6.10;99.90;;;;;;5070159;28;20667;-84
2022/12/20 12:20:47;;;;;;;0.10;0.10;;;6.10;99.90;;;;;;5058455;28;20231;-83
2022/12/20 12:23:20;;;;;;;0.07;0.07;;;6.10;99.90;;;;;;5060477;28;20702;-85
2022/12/20 12:25:46;;;;;;;0.10;0.10;;;6.00;99.90;;;;;;5073787;28;20289;-83
2022/12/20 12:28:12;;;;;;;0.10;0.10;;;6.00;99.90;;;;;;5072346;28;20182;-83
2022/12/20 12:31:05;;;;;;;0.10;0.10;;;6.10;99.90;;;;;;5071037;28;20202;-82
2022/12/20 12:33:40;;;;;;;0.10;0.10;;;6.00;99.90;;;;;;5054233;28;20182;-83
2022/12/20 12:36:37;;;;;;;0.10;0.10;;;6.00;99.90;;;;;;5054435;28;20187;-82
2022/12/20 12:39:17;;;;;;;0.10;0.10;;;6.10;99.90;;;;;;5054313;28;20209;-82
2022/12/20 12:41:55;;;;;;;0.10;0.10;;;6.10;99.90;;;;;;5071301;28;20249;-82
2022/12/20 12:44:42;;;;;;;0.10;0.10;;;6.10;99.90;;;;;;5056293;28;20200;-82
2022/12/20 12:47:15;;;;;;;0.10;0.10;;;6.20;99.90;;;;;;5072224;28;20231;-83
2022/12/20 12:49:42;;;;;;;0.10;0.10;;;6.30;99.90;;;;;;5054056;28;20208;-82
2022/12/20 12:52:48;;;;;;;0.10;0.10;;;6.50;99.90;;;;;;5055806;28;20484;-83
2022/12/20 12:55:38;;;;;;;0.10;0.10;;;6.60;99.90;;;;;;5068182;28;20179;-83
2022/12/20 12:58:22;;;;;;;0.10;0.10;;;6.40;99.90;;;;;;5069004;28;20201;-83
2022/12/20 13:00:55;;;;;;;0.10;0.10;;;6.30;99.90;;;;;;5072933;28;20200;-84
2022/12/20 13:03:51;;;;;;;0.10;0.10;;;6.20;99.90;;;;;;5054451;28;20194;-83
2022/12/20 13:06:24;;;;;;;0.20;0.20;;;6.30;99.90;;;;;;5067570;28;20370;-83
2022/12/20 13:09:17;;;;;;;0.10;0.10;;;6.30;99.90;;;;;;5067957;28;20210;-83
2022/12/20 13:11:43;;;;;;;0.10;0.10;;;6.40;99.90;;;;;;5056542;28;20649;-83
2022/12/20 13:14:23;;;;;;;0.10;0.10;;;6.30;99.90;;;;;;5055503;28;20198;-83
2022/12/20 13:16:59;;;;;;;0.10;0.10;;;6.10;99.90;;;;;;5068899;28;20211;-83
2022/12/20 13:19:24;;;;;;;0.10;0.10;;;6.10;99.90;;;;;;5067443;28;21059;-83
2022/12/20 13:21:56;;;;;;;0.10;0.10;;;6.30;99.90;;;;;;5051907;28;20191;-82
2022/12/20 13:24:35;;;;;;;0.10;0.10;;;6.20;99.90;;;;;;5055032;28;20274;-82
2022/12/20 13:27:03;;;;;;;0.10;0.10;;;6.40;99.90;;;;;;5053972;28;20269;-82